sensor_id;sensor_type;location;lat;lon;timestamp;P1;durP1;ratioP1;P2;durP2;ratioP2
23449;SDS011;11897;45.438;12.128;2023-08-12T00:02:14;5.25;;;2.40;;
23449;SDS011;11897;45.438;12.128;2023-08-12T00:04:41;3.92;;;2.97;;
23449;SDS011;11897;45.438;12.128;2023-08-12T00:07:08;6.15;;;2.55;;
23449;SDS011;11897;45.438;12.128;2023-08-12T00:09:36;3.97;;;2.75;;
23449;SDS011;11897;45.438;12.128;2023-08-12T00:12:03;3.72;;;2.80;;
23449;SDS011;11897;45.438;12.128;2023-08-12T00:14:31;4.72;;;2.70;;
23449;SDS011;11897;45.438;12.128;2023-08-12T00:17:00;3.85;;;2.50;;
23449;SDS011;11897;45.438;12.128;2023-08-12T00:19:29;2.60;;;2.20;;
23449;SDS011;11897;45.438;12.128;2023-08-12T00:21:56;3.63;;;2.60;;
23449;SDS011;11897;45.438;12.128;2023-08-12T00:24:23;3.70;;;2.63;;
23449;SDS011;11897;45.438;12.128;2023-08-12T00:26:49;4.40;;;2.90;;
23449;SDS011;11897;45.438;12.128;2023-08-12T00:29:16;7.50;;;3.03;;
23449;SDS011;11897;45.438;12.128;2023-08-12T00:31:43;3.75;;;2.83;;
23449;SDS011;11897;45.438;12.128;2023-08-12T00:34:09;3.15;;;2.55;;
23449;SDS011;11897;45.438;12.128;2023-08-12T00:36:38;4.22;;;2.80;;
23449;SDS011;11897;45.438;12.128;2023-08-12T00:39:04;3.65;;;2.75;;
23449;SDS011;11897;45.438;12.128;2023-08-12T00:41:31;3.97;;;2.97;;
23449;SDS011;11897;45.438;12.128;2023-08-12T00:43:58;13.60;;;3.25;;
23449;SDS011;11897;45.438;12.128;2023-08-12T00:46:24;5.82;;;3.00;;
23449;SDS011;11897;45.438;12.128;2023-08-12T00:48:52;2.85;;;2.45;;
23449;SDS011;11897;45.438;12.128;2023-08-12T00:51:19;4.90;;;2.45;;
23449;SDS011;11897;45.438;12.128;2023-08-12T00:53:48;4.03;;;2.80;;
23449;SDS011;11897;45.438;12.128;2023-08-12T00:56:17;4.65;;;2.83;;
23449;SDS011;11897;45.438;12.128;2023-08-12T00:58:43;4.40;;;2.80;;
23449;SDS011;11897;45.438;12.128;2023-08-12T01:01:11;4.32;;;3.03;;
23449;SDS011;11897;45.438;12.128;2023-08-12T01:03:38;3.17;;;2.58;;
23449;SDS011;11897;45.438;12.128;2023-08-12T01:06:05;4.90;;;2.53;;
23449;SDS011;11897;45.438;12.128;2023-08-12T01:08:33;4.35;;;3.22;;
23449;SDS011;11897;45.438;12.128;2023-08-12T01:11:03;3.63;;;2.70;;
23449;SDS011;11897;45.438;12.128;2023-08-12T01:13:32;6.88;;;2.90;;
23449;SDS011;11897;45.438;12.128;2023-08-12T01:16:03;4.03;;;2.80;;
23449;SDS011;11897;45.438;12.128;2023-08-12T01:18:33;3.80;;;2.65;;
23449;SDS011;11897;45.438;12.128;2023-08-12T01:21:05;5.70;;;3.05;;
23449;SDS011;11897;45.438;12.128;2023-08-12T01:23:35;3.63;;;3.00;;
23449;SDS011;11897;45.438;12.128;2023-08-12T01:26:02;7.88;;;3.03;;
23449;SDS011;11897;45.438;12.128;2023-08-12T01:28:29;2.95;;;2.63;;
23449;SDS011;11897;45.438;12.128;2023-08-12T01:30:57;4.85;;;2.78;;
23449;SDS011;11897;45.438;12.128;2023-08-12T01:33:26;3.22;;;2.90;;
23449;SDS011;11897;45.438;12.128;2023-08-12T01:35:55;5.53;;;3.10;;
23449;SDS011;11897;45.438;12.128;2023-08-12T01:38:23;5.85;;;2.95;;
23449;SDS011;11897;45.438;12.128;2023-08-12T01:40:54;4.32;;;2.67;;
23449;SDS011;11897;45.438;12.128;2023-08-12T01:43:22;4.10;;;2.72;;
23449;SDS011;11897;45.438;12.128;2023-08-12T01:45:49;6.43;;;3.53;;
23449;SDS011;11897;45.438;12.128;2023-08-12T01:48:17;3.40;;;2.97;;
23449;SDS011;11897;45.438;12.128;2023-08-12T01:50:45;4.97;;;3.20;;
23449;SDS011;11897;45.438;12.128;2023-08-12T01:53:13;5.40;;;3.65;;
23449;SDS011;11897;45.438;12.128;2023-08-12T01:55:42;6.97;;;3.35;;
23449;SDS011;11897;45.438;12.128;2023-08-12T01:58:10;4.10;;;3.25;;
23449;SDS011;11897;45.438;12.128;2023-08-12T02:00:37;4.05;;;3.08;;
23449;SDS011;11897;45.438;12.128;2023-08-12T02:03:03;5.13;;;3.13;;
23449;SDS011;11897;45.438;12.128;2023-08-12T02:05:30;4.97;;;3.30;;
23449;SDS011;11897;45.438;12.128;2023-08-12T02:07:57;7.13;;;3.90;;
23449;SDS011;11897;45.438;12.128;2023-08-12T02:10:24;5.00;;;3.10;;
23449;SDS011;11897;45.438;12.128;2023-08-12T02:12:52;9.15;;;3.05;;
23449;SDS011;11897;45.438;12.128;2023-08-12T02:15:22;4.88;;;3.65;;
23449;SDS011;11897;45.438;12.128;2023-08-12T02:17:50;5.10;;;3.95;;
23449;SDS011;11897;45.438;12.128;2023-08-12T02:20:17;6.32;;;2.90;;
23449;SDS011;11897;45.438;12.128;2023-08-12T02:22:43;5.10;;;3.35;;
23449;SDS011;11897;45.438;12.128;2023-08-12T02:25:10;4.65;;;2.78;;
23449;SDS011;11897;45.438;12.128;2023-08-12T02:27:38;4.20;;;2.92;;
23449;SDS011;11897;45.438;12.128;2023-08-12T02:30:05;4.03;;;3.20;;
23449;SDS011;11897;45.438;12.128;2023-08-12T02:32:34;4.13;;;3.00;;
23449;SDS011;11897;45.438;12.128;2023-08-12T02:35:00;7.20;;;3.63;;
23449;SDS011;11897;45.438;12.128;2023-08-12T02:37:29;4.85;;;3.40;;
23449;SDS011;11897;45.438;12.128;2023-08-12T02:39:56;5.03;;;3.55;;
23449;SDS011;11897;45.438;12.128;2023-08-12T02:42:23;6.53;;;4.43;;
23449;SDS011;11897;45.438;12.128;2023-08-12T02:44:52;5.53;;;4.00;;
23449;SDS011;11897;45.438;12.128;2023-08-12T02:47:19;10.73;;;4.75;;
23449;SDS011;11897;45.438;12.128;2023-08-12T02:49:47;8.60;;;5.03;;
23449;SDS011;11897;45.438;12.128;2023-08-12T02:52:14;5.55;;;4.30;;
23449;SDS011;11897;45.438;12.128;2023-08-12T02:54:40;7.57;;;5.45;;
23449;SDS011;11897;45.438;12.128;2023-08-12T02:57:07;6.10;;;5.40;;
23449;SDS011;11897;45.438;12.128;2023-08-12T02:59:34;6.35;;;5.30;;
23449;SDS011;11897;45.438;12.128;2023-08-12T03:02:01;6.43;;;5.18;;
23449;SDS011;11897;45.438;12.128;2023-08-12T03:04:28;7.68;;;5.82;;
23449;SDS011;11897;45.438;12.128;2023-08-12T03:06:57;7.37;;;5.53;;
23449;SDS011;11897;45.438;12.128;2023-08-12T03:09:25;8.07;;;5.70;;
23449;SDS011;11897;45.438;12.128;2023-08-12T03:11:53;6.57;;;5.40;;
23449;SDS011;11897;45.438;12.128;2023-08-12T03:14:19;7.28;;;5.65;;
23449;SDS011;11897;45.438;12.128;2023-08-12T03:16:47;10.30;;;5.97;;
23449;SDS011;11897;45.438;12.128;2023-08-12T03:19:13;11.57;;;5.78;;
23449;SDS011;11897;45.438;12.128;2023-08-12T03:21:42;8.98;;;6.20;;
23449;SDS011;11897;45.438;12.128;2023-08-12T03:24:12;7.33;;;5.43;;
23449;SDS011;11897;45.438;12.128;2023-08-12T03:26:39;8.15;;;5.95;;
23449;SDS011;11897;45.438;12.128;2023-08-12T03:29:06;6.90;;;5.57;;
23449;SDS011;11897;45.438;12.128;2023-08-12T03:31:36;8.15;;;6.03;;
23449;SDS011;11897;45.438;12.128;2023-08-12T03:34:05;7.53;;;5.80;;
23449;SDS011;11897;45.438;12.128;2023-08-12T03:36:37;9.50;;;5.70;;
23449;SDS011;11897;45.438;12.128;2023-08-12T03:39:03;7.23;;;5.80;;
23449;SDS011;11897;45.438;12.128;2023-08-12T03:41:32;10.20;;;6.65;;
23449;SDS011;11897;45.438;12.128;2023-08-12T03:44:03;8.18;;;6.10;;
23449;SDS011;11897;45.438;12.128;2023-08-12T03:46:31;6.07;;;5.40;;
23449;SDS011;11897;45.438;12.128;2023-08-12T03:49:02;8.60;;;6.13;;
23449;SDS011;11897;45.438;12.128;2023-08-12T03:51:31;10.32;;;7.05;;
23449;SDS011;11897;45.438;12.128;2023-08-12T03:54:01;7.35;;;6.30;;
23449;SDS011;11897;45.438;12.128;2023-08-12T03:56:29;9.13;;;6.65;;
23449;SDS011;11897;45.438;12.128;2023-08-12T03:58:59;9.37;;;6.47;;
23449;SDS011;11897;45.438;12.128;2023-08-12T04:01:26;8.73;;;6.65;;
23449;SDS011;11897;45.438;12.128;2023-08-12T04:03:53;9.87;;;5.90;;
23449;SDS011;11897;45.438;12.128;2023-08-12T04:06:21;6.60;;;5.13;;
23449;SDS011;11897;45.438;12.128;2023-08-12T04:08:48;6.63;;;5.85;;
23449;SDS011;11897;45.438;12.128;2023-08-12T04:11:14;8.53;;;5.97;;
23449;SDS011;11897;45.438;12.128;2023-08-12T04:13:41;8.57;;;5.67;;
23449;SDS011;11897;45.438;12.128;2023-08-12T04:16:13;8.47;;;5.97;;
23449;SDS011;11897;45.438;12.128;2023-08-12T04:18:43;7.57;;;5.50;;
23449;SDS011;11897;45.438;12.128;2023-08-12T04:21:10;7.87;;;5.80;;
23449;SDS011;11897;45.438;12.128;2023-08-12T04:23:38;7.67;;;5.53;;
23449;SDS011;11897;45.438;12.128;2023-08-12T04:26:05;7.10;;;5.53;;
23449;SDS011;11897;45.438;12.128;2023-08-12T04:28:34;7.10;;;5.77;;
23449;SDS011;11897;45.438;12.128;2023-08-12T04:31:05;8.63;;;6.10;;
23449;SDS011;11897;45.438;12.128;2023-08-12T04:33:41;8.73;;;5.70;;
23449;SDS011;11897;45.438;12.128;2023-08-12T04:36:08;8.77;;;5.63;;
23449;SDS011;11897;45.438;12.128;2023-08-12T04:38:36;8.77;;;5.93;;
23449;SDS011;11897;45.438;12.128;2023-08-12T04:41:07;6.80;;;5.23;;
23449;SDS011;11897;45.438;12.128;2023-08-12T04:43:35;10.03;;;5.83;;
23449;SDS011;11897;45.438;12.128;2023-08-12T04:46:03;6.03;;;5.22;;
23449;SDS011;11897;45.438;12.128;2023-08-12T04:48:30;8.67;;;6.13;;
23449;SDS011;11897;45.438;12.128;2023-08-12T04:50:59;8.18;;;5.43;;
23449;SDS011;11897;45.438;12.128;2023-08-12T04:53:27;8.27;;;5.43;;
23449;SDS011;11897;45.438;12.128;2023-08-12T04:55:55;7.68;;;5.30;;
23449;SDS011;11897;45.438;12.128;2023-08-12T04:58:22;6.30;;;5.20;;
23449;SDS011;11897;45.438;12.128;2023-08-12T05:00:50;7.82;;;5.53;;
23449;SDS011;11897;45.438;12.128;2023-08-12T05:03:19;6.65;;;4.72;;
23449;SDS011;11897;45.438;12.128;2023-08-12T05:05:49;9.60;;;5.00;;
23449;SDS011;11897;45.438;12.128;2023-08-12T05:08:17;8.10;;;4.97;;
23449;SDS011;11897;45.438;12.128;2023-08-12T05:10:44;7.27;;;4.93;;
23449;SDS011;11897;45.438;12.128;2023-08-12T05:13:13;6.40;;;4.65;;
23449;SDS011;11897;45.438;12.128;2023-08-12T05:15:40;6.07;;;4.73;;
23449;SDS011;11897;45.438;12.128;2023-08-12T05:18:07;6.33;;;4.83;;
23449;SDS011;11897;45.438;12.128;2023-08-12T05:20:34;9.07;;;5.50;;
23449;SDS011;11897;45.438;12.128;2023-08-12T05:23:01;6.07;;;4.50;;
23449;SDS011;11897;45.438;12.128;2023-08-12T05:25:29;9.63;;;4.38;;
23449;SDS011;11897;45.438;12.128;2023-08-12T05:27:55;8.05;;;4.78;;
23449;SDS011;11897;45.438;12.128;2023-08-12T05:30:22;5.60;;;4.55;;
23449;SDS011;11897;45.438;12.128;2023-08-12T05:32:49;8.55;;;4.35;;
23449;SDS011;11897;45.438;12.128;2023-08-12T05:35:15;6.97;;;4.57;;
23449;SDS011;11897;45.438;12.128;2023-08-12T05:37:42;7.20;;;4.57;;
23449;SDS011;11897;45.438;12.128;2023-08-12T05:40:09;7.57;;;4.75;;
23449;SDS011;11897;45.438;12.128;2023-08-12T05:42:38;5.88;;;4.65;;
23449;SDS011;11897;45.438;12.128;2023-08-12T05:45:05;5.75;;;4.45;;
23449;SDS011;11897;45.438;12.128;2023-08-12T05:47:32;7.97;;;5.32;;
23449;SDS011;11897;45.438;12.128;2023-08-12T05:50:00;7.55;;;5.25;;
23449;SDS011;11897;45.438;12.128;2023-08-12T05:52:27;7.38;;;5.25;;
23449;SDS011;11897;45.438;12.128;2023-08-12T05:54:56;7.75;;;4.85;;
23449;SDS011;11897;45.438;12.128;2023-08-12T05:57:23;11.63;;;4.82;;
23449;SDS011;11897;45.438;12.128;2023-08-12T05:59:51;7.03;;;5.07;;
23449;SDS011;11897;45.438;12.128;2023-08-12T06:02:18;7.47;;;4.70;;
23449;SDS011;11897;45.438;12.128;2023-08-12T06:04:45;5.80;;;4.75;;
23449;SDS011;11897;45.438;12.128;2023-08-12T06:07:13;5.85;;;4.80;;
23449;SDS011;11897;45.438;12.128;2023-08-12T06:09:40;5.90;;;4.72;;
23449;SDS011;11897;45.438;12.128;2023-08-12T06:12:07;7.90;;;4.68;;
23449;SDS011;11897;45.438;12.128;2023-08-12T06:14:36;5.82;;;4.63;;
23449;SDS011;11897;45.438;12.128;2023-08-12T06:17:05;5.82;;;4.35;;
23449;SDS011;11897;45.438;12.128;2023-08-12T06:19:32;7.32;;;4.60;;
23449;SDS011;11897;45.438;12.128;2023-08-12T06:21:59;7.40;;;4.78;;
23449;SDS011;11897;45.438;12.128;2023-08-12T06:24:26;5.70;;;4.40;;
23449;SDS011;11897;45.438;12.128;2023-08-12T06:26:53;6.18;;;4.65;;
23449;SDS011;11897;45.438;12.128;2023-08-12T06:29:20;5.80;;;4.22;;
23449;SDS011;11897;45.438;12.128;2023-08-12T06:31:49;6.85;;;4.45;;
23449;SDS011;11897;45.438;12.128;2023-08-12T06:34:18;4.93;;;4.13;;
23449;SDS011;11897;45.438;12.128;2023-08-12T06:36:45;10.77;;;4.57;;
23449;SDS011;11897;45.438;12.128;2023-08-12T06:39:12;7.90;;;3.92;;
23449;SDS011;11897;45.438;12.128;2023-08-12T06:41:39;5.50;;;4.57;;
23449;SDS011;11897;45.438;12.128;2023-08-12T06:44:05;5.43;;;4.32;;
23449;SDS011;11897;45.438;12.128;2023-08-12T06:46:32;8.20;;;3.88;;
23449;SDS011;11897;45.438;12.128;2023-08-12T06:49:02;5.47;;;3.97;;
23449;SDS011;11897;45.438;12.128;2023-08-12T06:51:30;6.93;;;3.80;;
23449;SDS011;11897;45.438;12.128;2023-08-12T06:53:56;3.95;;;3.47;;
23449;SDS011;11897;45.438;12.128;2023-08-12T06:56:23;5.30;;;3.53;;
23449;SDS011;11897;45.438;12.128;2023-08-12T06:58:50;3.50;;;3.20;;
23449;SDS011;11897;45.438;12.128;2023-08-12T07:01:16;5.15;;;2.83;;
23449;SDS011;11897;45.438;12.128;2023-08-12T07:03:43;4.68;;;3.13;;
23449;SDS011;11897;45.438;12.128;2023-08-12T07:06:10;3.53;;;2.80;;
23449;SDS011;11897;45.438;12.128;2023-08-12T07:08:40;3.70;;;3.00;;
23449;SDS011;11897;45.438;12.128;2023-08-12T07:11:07;4.32;;;3.10;;
23449;SDS011;11897;45.438;12.128;2023-08-12T07:13:33;4.85;;;3.22;;
23449;SDS011;11897;45.438;12.128;2023-08-12T07:16:01;2.90;;;2.50;;
23449;SDS011;11897;45.438;12.128;2023-08-12T07:18:28;3.58;;;3.05;;
23449;SDS011;11897;45.438;12.128;2023-08-12T07:20:58;3.88;;;2.80;;
23449;SDS011;11897;45.438;12.128;2023-08-12T07:23:26;3.58;;;2.80;;
23449;SDS011;11897;45.438;12.128;2023-08-12T07:25:54;3.15;;;2.63;;
23449;SDS011;11897;45.438;12.128;2023-08-12T07:28:21;2.97;;;2.38;;
23449;SDS011;11897;45.438;12.128;2023-08-12T07:30:47;3.58;;;2.65;;
23449;SDS011;11897;45.438;12.128;2023-08-12T07:33:14;3.65;;;2.78;;
23449;SDS011;11897;45.438;12.128;2023-08-12T07:35:41;2.83;;;1.98;;
23449;SDS011;11897;45.438;12.128;2023-08-12T07:38:10;3.35;;;2.38;;
23449;SDS011;11897;45.438;12.128;2023-08-12T07:40:38;2.47;;;2.10;;
23449;SDS011;11897;45.438;12.128;2023-08-12T07:43:10;2.60;;;2.15;;
23449;SDS011;11897;45.438;12.128;2023-08-12T07:45:39;3.75;;;2.10;;
23449;SDS011;11897;45.438;12.128;2023-08-12T07:48:05;2.78;;;2.35;;
23449;SDS011;11897;45.438;12.128;2023-08-12T07:50:32;1.88;;;1.45;;
23449;SDS011;11897;45.438;12.128;2023-08-12T07:52:59;4.80;;;1.85;;
23449;SDS011;11897;45.438;12.128;2023-08-12T07:55:26;3.30;;;2.20;;
23449;SDS011;11897;45.438;12.128;2023-08-12T07:57:53;2.03;;;1.80;;
23449;SDS011;11897;45.438;12.128;2023-08-12T08:00:22;1.85;;;1.40;;
23449;SDS011;11897;45.438;12.128;2023-08-12T08:02:49;2.42;;;1.92;;
23449;SDS011;11897;45.438;12.128;2023-08-12T08:05:16;2.42;;;1.88;;
23449;SDS011;11897;45.438;12.128;2023-08-12T08:07:45;1.85;;;1.58;;
23449;SDS011;11897;45.438;12.128;2023-08-12T08:10:14;1.70;;;1.58;;
23449;SDS011;11897;45.438;12.128;2023-08-12T08:12:41;1.92;;;1.38;;
23449;SDS011;11897;45.438;12.128;2023-08-12T08:15:07;1.70;;;1.40;;
23449;SDS011;11897;45.438;12.128;2023-08-12T08:17:35;2.42;;;1.70;;
23449;SDS011;11897;45.438;12.128;2023-08-12T08:20:03;2.05;;;1.83;;
23449;SDS011;11897;45.438;12.128;2023-08-12T08:22:30;2.60;;;1.73;;
23449;SDS011;11897;45.438;12.128;2023-08-12T08:24:57;2.17;;;1.58;;
23449;SDS011;11897;45.438;12.128;2023-08-12T08:27:25;2.05;;;1.52;;
23449;SDS011;11897;45.438;12.128;2023-08-12T08:29:56;1.50;;;1.40;;
23449;SDS011;11897;45.438;12.128;2023-08-12T08:32:27;1.45;;;1.33;;
23449;SDS011;11897;45.438;12.128;2023-08-12T08:34:55;2.60;;;1.60;;
23449;SDS011;11897;45.438;12.128;2023-08-12T08:37:23;1.25;;;1.15;;
23449;SDS011;11897;45.438;12.128;2023-08-12T08:39:52;1.58;;;1.48;;
23449;SDS011;11897;45.438;12.128;2023-08-12T08:42:18;1.50;;;1.40;;
23449;SDS011;11897;45.438;12.128;2023-08-12T08:44:47;1.50;;;1.40;;
23449;SDS011;11897;45.438;12.128;2023-08-12T08:47:15;1.38;;;1.27;;
23449;SDS011;11897;45.438;12.128;2023-08-12T08:49:43;1.98;;;1.75;;
23449;SDS011;11897;45.438;12.128;2023-08-12T08:52:15;1.80;;;1.25;;
23449;SDS011;11897;45.438;12.128;2023-08-12T08:54:43;2.45;;;1.65;;
23449;SDS011;11897;45.438;12.128;2023-08-12T08:57:11;2.97;;;1.70;;
23449;SDS011;11897;45.438;12.128;2023-08-12T08:59:38;6.65;;;2.05;;
23449;SDS011;11897;45.438;12.128;2023-08-12T09:02:05;1.95;;;1.55;;
23449;SDS011;11897;45.438;12.128;2023-08-12T09:04:36;3.45;;;1.40;;
23449;SDS011;11897;45.438;12.128;2023-08-12T09:07:04;1.35;;;1.10;;
23449;SDS011;11897;45.438;12.128;2023-08-12T09:09:32;2.13;;;1.40;;
23449;SDS011;11897;45.438;12.128;2023-08-12T09:12:00;6.75;;;1.80;;
23449;SDS011;11897;45.438;12.128;2023-08-12T09:14:27;2.85;;;1.42;;
23449;SDS011;11897;45.438;12.128;2023-08-12T09:16:54;1.95;;;1.65;;
23449;SDS011;11897;45.438;12.128;2023-08-12T09:19:23;2.60;;;1.65;;
23449;SDS011;11897;45.438;12.128;2023-08-12T09:21:51;2.83;;;1.50;;
23449;SDS011;11897;45.438;12.128;2023-08-12T09:24:18;2.47;;;1.70;;
23449;SDS011;11897;45.438;12.128;2023-08-12T09:26:52;1.60;;;1.50;;
23449;SDS011;11897;45.438;12.128;2023-08-12T09:29:21;1.52;;;1.40;;
23449;SDS011;11897;45.438;12.128;2023-08-12T09:31:48;4.68;;;1.73;;
23449;SDS011;11897;45.438;12.128;2023-08-12T09:34:15;2.03;;;1.45;;
23449;SDS011;11897;45.438;12.128;2023-08-12T09:36:44;1.70;;;1.52;;
23449;SDS011;11897;45.438;12.128;2023-08-12T09:39:12;4.03;;;1.75;;
23449;SDS011;11897;45.438;12.128;2023-08-12T09:41:40;1.80;;;1.70;;
23449;SDS011;11897;45.438;12.128;2023-08-12T09:44:10;4.00;;;1.70;;
23449;SDS011;11897;45.438;12.128;2023-08-12T09:46:40;2.00;;;1.48;;
23449;SDS011;11897;45.438;12.128;2023-08-12T09:49:08;1.85;;;1.55;;
23449;SDS011;11897;45.438;12.128;2023-08-12T09:51:35;2.22;;;1.52;;
23449;SDS011;11897;45.438;12.128;2023-08-12T09:54:02;4.68;;;1.50;;
23449;SDS011;11897;45.438;12.128;2023-08-12T09:56:30;2.78;;;1.60;;
23449;SDS011;11897;45.438;12.128;2023-08-12T09:58:58;3.75;;;1.60;;
23449;SDS011;11897;45.438;12.128;2023-08-12T10:01:27;2.83;;;1.75;;
23449;SDS011;11897;45.438;12.128;2023-08-12T10:03:54;3.33;;;1.90;;
23449;SDS011;11897;45.438;12.128;2023-08-12T10:06:21;3.92;;;1.70;;
23449;SDS011;11897;45.438;12.128;2023-08-12T10:08:47;2.53;;;2.08;;
23449;SDS011;11897;45.438;12.128;2023-08-12T10:11:19;3.17;;;2.03;;
23449;SDS011;11897;45.438;12.128;2023-08-12T10:13:47;2.78;;;2.17;;
23449;SDS011;11897;45.438;12.128;2023-08-12T10:16:13;2.75;;;2.20;;
23449;SDS011;11897;45.438;12.128;2023-08-12T10:18:42;3.63;;;1.92;;
23449;SDS011;11897;45.438;12.128;2023-08-12T10:21:09;4.20;;;2.42;;
23449;SDS011;11897;45.438;12.128;2023-08-12T10:23:37;2.83;;;1.90;;
23449;SDS011;11897;45.438;12.128;2023-08-12T10:26:05;3.03;;;2.13;;
23449;SDS011;11897;45.438;12.128;2023-08-12T10:28:32;2.35;;;1.80;;
23449;SDS011;11897;45.438;12.128;2023-08-12T10:31:02;2.13;;;1.60;;
23449;SDS011;11897;45.438;12.128;2023-08-12T10:33:28;3.78;;;1.38;;
23449;SDS011;11897;45.438;12.128;2023-08-12T10:35:57;3.28;;;2.17;;
23449;SDS011;11897;45.438;12.128;2023-08-12T10:38:23;2.33;;;2.13;;
23449;SDS011;11897;45.438;12.128;2023-08-12T10:40:52;3.50;;;2.15;;
23449;SDS011;11897;45.438;12.128;2023-08-12T10:43:19;3.17;;;2.00;;
23449;SDS011;11897;45.438;12.128;2023-08-12T10:45:46;4.90;;;2.10;;
23449;SDS011;11897;45.438;12.128;2023-08-12T10:48:17;3.47;;;2.00;;
23449;SDS011;11897;45.438;12.128;2023-08-12T10:50:48;3.85;;;2.25;;
23449;SDS011;11897;45.438;12.128;2023-08-12T10:53:23;3.40;;;1.80;;
23449;SDS011;11897;45.438;12.128;2023-08-12T10:55:55;2.67;;;2.10;;
23449;SDS011;11897;45.438;12.128;2023-08-12T10:58:24;1.73;;;1.50;;
23449;SDS011;11897;45.438;12.128;2023-08-12T11:00:52;1.52;;;1.42;;
23449;SDS011;11897;45.438;12.128;2023-08-12T11:03:19;2.47;;;1.83;;
23449;SDS011;11897;45.438;12.128;2023-08-12T11:05:58;2.63;;;1.95;;
23449;SDS011;11897;45.438;12.128;2023-08-12T11:08:29;6.63;;;2.33;;
23449;SDS011;11897;45.438;12.128;2023-08-12T11:10:59;2.58;;;1.80;;
23449;SDS011;11897;45.438;12.128;2023-08-12T11:13:33;2.10;;;1.60;;
23449;SDS011;11897;45.438;12.128;2023-08-12T11:16:12;3.35;;;1.85;;
23449;SDS011;11897;45.438;12.128;2023-08-12T11:18:39;2.65;;;1.73;;
23449;SDS011;11897;45.438;12.128;2023-08-12T11:21:09;2.58;;;1.80;;
23449;SDS011;11897;45.438;12.128;2023-08-12T11:23:37;3.53;;;1.90;;
23449;SDS011;11897;45.438;12.128;2023-08-12T11:26:04;4.65;;;1.83;;
23449;SDS011;11897;45.438;12.128;2023-08-12T11:28:32;3.08;;;1.80;;
23449;SDS011;11897;45.438;12.128;2023-08-12T11:31:01;1.65;;;1.55;;
23449;SDS011;11897;45.438;12.128;2023-08-12T11:33:27;1.75;;;1.50;;
23449;SDS011;11897;45.438;12.128;2023-08-12T11:35:54;2.33;;;1.80;;
23449;SDS011;11897;45.438;12.128;2023-08-12T11:38:21;3.58;;;1.85;;
23449;SDS011;11897;45.438;12.128;2023-08-12T11:40:49;2.10;;;1.50;;
23449;SDS011;11897;45.438;12.128;2023-08-12T11:43:16;3.80;;;2.25;;
23449;SDS011;11897;45.438;12.128;2023-08-12T11:45:46;2.55;;;1.80;;
23449;SDS011;11897;45.438;12.128;2023-08-12T11:48:14;3.53;;;2.08;;
23449;SDS011;11897;45.438;12.128;2023-08-12T11:50:41;2.35;;;1.98;;
23449;SDS011;11897;45.438;12.128;2023-08-12T11:53:08;2.75;;;2.15;;
23449;SDS011;11897;45.438;12.128;2023-08-12T11:55:34;2.40;;;1.77;;
23449;SDS011;11897;45.438;12.128;2023-08-12T11:58:03;2.30;;;1.70;;
23449;SDS011;11897;45.438;12.128;2023-08-12T12:00:32;1.77;;;1.33;;
23449;SDS011;11897;45.438;12.128;2023-08-12T12:03:00;2.13;;;1.80;;
23449;SDS011;11897;45.438;12.128;2023-08-12T12:05:27;2.45;;;1.67;;
23449;SDS011;11897;45.438;12.128;2023-08-12T12:07:55;3.38;;;1.90;;
23449;SDS011;11897;45.438;12.128;2023-08-12T12:10:25;1.95;;;1.77;;
23449;SDS011;11897;45.438;12.128;2023-08-12T12:12:54;3.15;;;1.52;;
23449;SDS011;11897;45.438;12.128;2023-08-12T12:15:22;4.30;;;1.63;;
23449;SDS011;11897;45.438;12.128;2023-08-12T12:17:49;2.83;;;1.60;;
23449;SDS011;11897;45.438;12.128;2023-08-12T12:20:16;1.90;;;1.65;;
23449;SDS011;11897;45.438;12.128;2023-08-12T12:22:43;2.03;;;1.77;;
23449;SDS011;11897;45.438;12.128;2023-08-12T12:25:12;2.22;;;1.38;;
23449;SDS011;11897;45.438;12.128;2023-08-12T12:27:43;3.90;;;1.60;;
23449;SDS011;11897;45.438;12.128;2023-08-12T12:30:13;2.58;;;1.60;;
23449;SDS011;11897;45.438;12.128;2023-08-12T12:32:42;4.03;;;1.63;;
23449;SDS011;11897;45.438;12.128;2023-08-12T12:35:10;2.22;;;1.80;;
23449;SDS011;11897;45.438;12.128;2023-08-12T12:37:36;1.48;;;1.38;;
23449;SDS011;11897;45.438;12.128;2023-08-12T12:40:09;2.28;;;1.92;;
23449;SDS011;11897;45.438;12.128;2023-08-12T12:42:39;3.65;;;1.58;;
23449;SDS011;11897;45.438;12.128;2023-08-12T12:45:07;1.85;;;1.50;;
23449;SDS011;11897;45.438;12.128;2023-08-12T12:47:34;3.63;;;1.30;;
23449;SDS011;11897;45.438;12.128;2023-08-12T12:50:05;2.38;;;1.65;;
23449;SDS011;11897;45.438;12.128;2023-08-12T12:52:32;1.55;;;1.35;;
23449;SDS011;11897;45.438;12.128;2023-08-12T12:54:59;1.65;;;1.55;;
23449;SDS011;11897;45.438;12.128;2023-08-12T12:57:26;2.35;;;1.73;;
23449;SDS011;11897;45.438;12.128;2023-08-12T12:59:52;1.48;;;1.38;;
23449;SDS011;11897;45.438;12.128;2023-08-12T13:02:20;1.60;;;1.50;;
23449;SDS011;11897;45.438;12.128;2023-08-12T13:04:46;2.10;;;1.48;;
23449;SDS011;11897;45.438;12.128;2023-08-12T13:07:16;2.95;;;1.52;;
23449;SDS011;11897;45.438;12.128;2023-08-12T13:09:43;3.60;;;1.83;;
23449;SDS011;11897;45.438;12.128;2023-08-12T13:12:10;1.83;;;1.33;;
23449;SDS011;11897;45.438;12.128;2023-08-12T13:14:37;1.65;;;1.30;;
23449;SDS011;11897;45.438;12.128;2023-08-12T13:17:18;1.33;;;1.23;;
23449;SDS011;11897;45.438;12.128;2023-08-12T13:20:08;1.50;;;1.40;;
23449;SDS011;11897;45.438;12.128;2023-08-12T13:22:52;1.60;;;1.10;;
23449;SDS011;11897;45.438;12.128;2023-08-12T13:25:25;1.25;;;1.10;;
23449;SDS011;11897;45.438;12.128;2023-08-12T13:27:51;1.55;;;1.10;;
23449;SDS011;11897;45.438;12.128;2023-08-12T13:30:18;1.67;;;1.30;;
23449;SDS011;11897;45.438;12.128;2023-08-12T13:32:45;1.70;;;1.45;;
23449;SDS011;11897;45.438;12.128;2023-08-12T13:35:12;1.88;;;1.40;;
23449;SDS011;11897;45.438;12.128;2023-08-12T13:37:39;2.38;;;1.35;;
23449;SDS011;11897;45.438;12.128;2023-08-12T13:40:08;1.67;;;1.25;;
23449;SDS011;11897;45.438;12.128;2023-08-12T13:42:37;2.33;;;1.70;;
23449;SDS011;11897;45.438;12.128;2023-08-12T13:45:04;1.50;;;1.40;;
23449;SDS011;11897;45.438;12.128;2023-08-12T13:47:31;1.50;;;1.40;;
23449;SDS011;11897;45.438;12.128;2023-08-12T13:49:57;2.13;;;1.70;;
23449;SDS011;11897;45.438;12.128;2023-08-12T13:52:26;2.53;;;1.67;;
23449;SDS011;11897;45.438;12.128;2023-08-12T13:54:52;2.70;;;1.52;;
23449;SDS011;11897;45.438;12.128;2023-08-12T13:57:21;1.90;;;1.42;;
23449;SDS011;11897;45.438;12.128;2023-08-12T13:59:47;1.60;;;1.42;;
23449;SDS011;11897;45.438;12.128;2023-08-12T14:02:15;1.73;;;1.50;;
23449;SDS011;11897;45.438;12.128;2023-08-12T14:04:42;2.55;;;1.67;;
23449;SDS011;11897;45.438;12.128;2023-08-12T14:07:12;2.55;;;1.50;;
23449;SDS011;11897;45.438;12.128;2023-08-12T14:09:39;2.42;;;1.50;;
23449;SDS011;11897;45.438;12.128;2023-08-12T14:12:06;2.38;;;1.42;;
23449;SDS011;11897;45.438;12.128;2023-08-12T14:14:34;1.50;;;1.40;;
23449;SDS011;11897;45.438;12.128;2023-08-12T14:17:03;2.45;;;1.42;;
23449;SDS011;11897;45.438;12.128;2023-08-12T14:19:32;4.97;;;1.42;;
23449;SDS011;11897;45.438;12.128;2023-08-12T14:21:58;2.55;;;1.55;;
23449;SDS011;11897;45.438;12.128;2023-08-12T14:24:25;2.40;;;2.00;;
23449;SDS011;11897;45.438;12.128;2023-08-12T14:26:52;1.55;;;1.42;;
23449;SDS011;11897;45.438;12.128;2023-08-12T14:29:19;1.70;;;1.55;;
23449;SDS011;11897;45.438;12.128;2023-08-12T14:31:47;2.20;;;1.80;;
23449;SDS011;11897;45.438;12.128;2023-08-12T14:34:13;1.98;;;1.30;;
23449;SDS011;11897;45.438;12.128;2023-08-12T14:36:40;1.77;;;1.58;;
23449;SDS011;11897;45.438;12.128;2023-08-12T14:39:08;3.42;;;1.58;;